Time;durP1;ratioP1;P1;durP2;ratioP2;P2;SDS_P1;SDS_P2;PMS_P1;PMS_P2;Temp;Humidity;BMP_temperature;BMP_pressure;BME280_temperature;BME280_humidity;BME280_pressure;Samples;Min_cycle;Max_cycle;Signal;HPM_P1;HPM_P2
2023/04/18 00:01:21;;;;;;;2.00;1.80;;;;;;;9.40;95.16;95675.94;4313014;32;20196;-60
2023/04/18 00:03:49;;;;;;;4.43;2.00;;;;;;;9.29;95.76;95677.91;4300835;32;20213;-59
2023/04/18 00:06:16;;;;;;;1.53;1.53;;;;;;;9.23;96.16;95675.56;4303983;32;20197;-59
2023/04/18 00:08:42;;;;;;;1.80;1.70;;;;;;;9.16;96.59;95672.41;4312064;32;22449;-59
2023/04/18 00:11:08;;;;;;;2.30;2.20;;;;;;;9.26;96.39;95667.06;4307724;33;20189;-59
2023/04/18 00:13:34;;;;;;;2.43;2.10;;;;;;;9.32;95.60;95668.62;4304457;33;20289;-59
2023/04/18 00:16:01;;;;;;;2.17;2.07;;;;;;;9.32;95.78;95658.03;4337661;32;20196;-59
2023/04/18 00:18:28;;;;;;;2.03;1.93;;;;;;;9.26;95.55;95659.13;4342503;32;20266;-59
2023/04/18 00:20:55;;;;;;;3.17;2.97;;;;;;;9.17;95.77;95660.75;4347040;32;20216;-59
2023/04/18 00:23:26;;;;;;;2.20;2.10;;;;;;;9.27;95.91;95660.69;4349334;32;20194;-59
2023/04/18 00:25:54;;;;;;;2.20;2.10;;;;;;;9.23;95.63;95659.66;4354715;32;20353;-59
2023/04/18 00:28:20;;;;;;;1.70;1.70;;;;;;;8.95;96.82;95664.59;4350642;32;20319;-59
2023/04/18 00:30:45;;;;;;;2.00;1.93;;;;;;;8.90;96.98;95656.72;4332463;32;20186;-59
2023/04/18 00:33:11;;;;;;;1.90;1.80;;;;;;;9.00;97.08;95665.66;4349832;32;20325;-59
2023/04/18 00:35:42;;;;;;;3.73;2.43;;;;;;;9.07;96.93;95666.94;4326878;32;20185;-60
2023/04/18 00:38:08;;;;;;;2.07;1.97;;;;;;;9.05;96.35;95663.75;4296277;33;20190;-59
2023/04/18 00:40:36;;;;;;;3.60;3.33;;;;;;;8.93;97.01;95666.75;4319375;32;20354;-59
2023/04/18 00:43:04;;;;;;;1.93;1.83;;;;;;;8.80;97.70;95655.97;4336950;32;20339;-59
2023/04/18 00:45:29;;;;;;;2.60;2.50;;;;;;;8.72;98.04;95660.00;4345154;32;20315;-59
2023/04/18 00:47:56;;;;;;;2.43;2.33;;;;;;;8.72;98.07;95653.91;4345555;32;20291;-59
2023/04/18 00:50:23;;;;;;;2.47;2.37;;;;;;;8.77;98.00;95652.03;4330238;32;20234;-59
2023/04/18 00:52:52;;;;;;;2.50;2.40;;;;;;;8.90;97.74;95656.72;4340571;32;20320;-60
2023/04/18 00:55:19;;;;;;;1.93;1.83;;;;;;;8.92;97.43;95651.16;4315526;33;20344;-60
2023/04/18 00:57:46;;;;;;;2.10;2.00;;;;;;;8.95;97.35;95658.53;4308432;33;20278;-59
2023/04/18 01:00:13;;;;;;;2.17;2.07;;;;;;;8.94;97.24;95651.66;4313651;32;20283;-59
2023/04/18 01:02:42;;;;;;;2.77;2.67;;;;;;;8.99;96.85;95653.47;4305532;33;20190;-59
2023/04/18 01:05:09;;;;;;;2.80;2.60;;;;;;;8.99;96.74;95654.28;4347502;32;20290;-59
2023/04/18 01:07:39;;;;;;;2.53;2.43;;;;;;;8.95;96.84;95659.31;4337268;32;20342;-59
2023/04/18 01:10:08;;;;;;;1.60;1.60;;;;;;;8.87;97.22;95651.19;4330058;32;20320;-61
2023/04/18 01:12:36;;;;;;;1.67;1.57;;;;;;;8.91;97.02;95652.22;4347283;32;20356;-59
2023/04/18 01:15:10;;;;;;;2.97;2.77;;;;;;;9.06;96.33;95659.25;4338963;32;20282;-59
2023/04/18 01:17:38;;;;;;;2.30;2.20;;;;;;;8.89;96.78;95651.69;4313777;33;20178;-59
2023/04/18 01:20:05;;;;;;;3.07;2.87;;;;;;;8.88;97.01;95656.19;4345742;32;20269;-59
2023/04/18 01:22:33;;;;;;;2.50;2.33;;;;;;;8.82;97.37;95659.13;4345002;32;20332;-59
2023/04/18 01:24:59;;;;;;;3.13;3.03;;;;;;;8.78;97.55;95650.97;4337965;32;20277;-59
2023/04/18 01:27:24;;;;;;;2.87;2.67;;;;;;;8.75;97.56;95654.16;4348861;32;20336;-59
2023/04/18 01:29:51;;;;;;;3.47;3.33;;;;;;;8.77;97.98;95656.53;4338634;32;20265;-59
2023/04/18 01:32:18;;;;;;;2.90;2.73;;;;;;;8.73;98.09;95653.62;4351083;32;20177;-59
2023/04/18 01:34:46;;;;;;;2.37;2.17;;;;;;;8.82;97.70;95651.22;4335880;32;20296;-59
2023/04/18 01:37:13;;;;;;;3.43;3.23;;;;;;;8.83;97.67;95643.00;4325307;32;20359;-59
2023/04/18 01:39:38;;;;;;;2.63;2.43;;;;;;;8.93;97.51;95656.19;4331950;32;20281;-59
2023/04/18 01:42:04;;;;;;;2.27;2.17;;;;;;;8.98;96.78;95646.59;4336527;32;20308;-59
2023/04/18 01:44:30;;;;;;;4.03;3.50;;;;;;;9.05;96.39;95649.75;4349932;32;20201;-59
2023/04/18 01:46:55;;;;;;;3.13;2.93;;;;;;;8.76;97.27;95647.78;4346551;32;20330;-59
2023/04/18 01:49:21;;;;;;;2.30;2.20;;;;;;;8.84;97.51;95649.09;4340806;32;20185;-59
2023/04/18 01:51:48;;;;;;;2.37;2.23;;;;;;;8.82;97.51;95649.34;4357683;32;20223;-59
2023/04/18 01:54:15;;;;;;;3.17;3.07;;;;;;;8.77;97.74;95641.44;4351815;32;20296;-59
2023/04/18 01:56:41;;;;;;;2.47;2.37;;;;;;;8.88;97.36;95637.69;4320226;32;20181;-59
2023/04/18 01:59:09;;;;;;;3.93;3.73;;;;;;;8.71;97.70;95642.56;4342702;32;20266;-59
2023/04/18 02:01:35;;;;;;;3.17;2.77;;;;;;;8.76;97.75;95641.72;4323185;32;20282;-59
2023/04/18 02:04:01;;;;;;;2.70;2.60;;;;;;;8.64;98.01;95639.41;4332455;32;20269;-59
2023/04/18 02:06:27;;;;;;;2.20;2.10;;;;;;;8.75;98.12;95645.41;4308053;32;20289;-59
2023/04/18 02:08:54;;;;;;;3.40;3.20;;;;;;;8.65;98.07;95641.00;4330093;32;20246;-59
2023/04/18 02:11:21;;;;;;;2.87;2.63;;;;;;;8.59;98.62;95636.78;4329255;32;20333;-59
2023/04/18 02:13:48;;;;;;;3.10;2.93;;;;;;;8.70;98.47;95635.69;4348796;32;20320;-59
2023/04/18 02:16:14;;;;;;;2.33;2.23;;;;;;;8.66;97.98;95631.19;4329785;32;20302;-59
2023/04/18 02:18:42;;;;;;;3.47;3.27;;;;;;;8.60;97.79;95636.50;4320522;32;20358;-59
2023/04/18 02:21:10;;;;;;;4.73;3.53;;;;;;;8.59;98.24;95644.72;4300585;32;20205;-59
2023/04/18 02:23:37;;;;;;;4.73;3.47;;;;;;;8.66;98.22;95644.44;4333653;32;20282;-59
2023/04/18 02:26:04;;;;;;;3.33;3.13;;;;;;;8.48;98.44;95644.00;4348056;32;20277;-60
2023/04/18 02:28:32;;;;;;;3.07;2.87;;;;;;;8.42;98.55;95642.41;4352005;32;20274;-59
2023/04/18 02:30:58;;;;;;;2.57;2.37;;;;;;;8.53;98.47;95646.59;4325870;32;20330;-60
2023/04/18 02:33:25;;;;;;;3.17;2.87;;;;;;;8.49;98.21;95650.06;4353004;32;20291;-60
2023/04/18 02:35:50;;;;;;;3.07;2.97;;;;;;;8.44;98.68;95650.09;4352947;32;20322;-60
2023/04/18 02:38:17;;;;;;;4.60;4.17;;;;;;;8.64;98.19;95652.62;4326985;32;20282;-60
2023/04/18 02:40:44;;;;;;;4.10;3.80;;;;;;;8.56;97.72;95653.97;4339782;32;20312;-59
2023/04/18 02:43:10;;;;;;;3.70;3.50;;;;;;;8.60;97.71;95648.94;4350710;32;20415;-59
2023/04/18 02:45:37;;;;;;;3.50;3.33;;;;;;;8.68;97.80;95647.59;4344479;32;20305;-59
2023/04/18 02:48:10;;;;;;;3.80;3.50;;;;;;;8.49;97.78;95642.13;4338776;32;20308;-59
2023/04/18 02:50:37;;;;;;;4.47;4.17;;;;;;;8.34;98.47;95637.69;4342600;32;20269;-60
2023/04/18 02:53:04;;;;;;;4.03;3.83;;;;;;;8.33;99.17;95649.31;4361013;32;20304;-59
2023/04/18 02:55:30;;;;;;;2.73;2.63;;;;;;;8.35;99.37;95646.41;4352663;32;20290;-60
2023/04/18 02:57:59;;;;;;;5.17;4.77;;;;;;;8.47;98.67;95644.25;4344183;32;20281;-59
2023/04/18 03:00:26;;;;;;;4.77;4.43;;;;;;;8.39;98.86;95645.59;4339687;32;20293;-59
2023/04/18 03:02:51;;;;;;;3.97;3.67;;;;;;;8.40;98.55;95646.38;4354740;32;20359;-59
2023/04/18 03:05:21;;;;;;;2.93;2.83;;;;;;;8.51;98.43;95645.31;4348630;32;20289;-59
2023/04/18 03:07:46;;;;;;;3.53;3.33;;;;;;;8.59;98.04;95644.72;4300786;32;20317;-59
2023/04/18 03:10:15;;;;;;;4.97;4.67;;;;;;;8.61;97.65;95646.03;4305132;33;20302;-59
2023/04/18 03:12:41;;;;;;;5.33;4.93;;;;;;;8.47;97.71;95641.63;4336033;32;20296;-60
2023/04/18 03:15:08;;;;;;;2.87;2.77;;;;;;;8.48;97.69;95643.19;4361841;32;20284;-59
2023/04/18 03:17:35;;;;;;;4.53;4.33;;;;;;;8.46;97.71;95645.31;4283713;32;20189;-59
2023/04/18 03:20:00;;;;;;;3.27;3.17;;;;;;;8.49;97.44;95640.28;4336652;32;20349;-59
2023/04/18 03:22:27;;;;;;;3.73;3.43;;;;;;;8.52;97.44;95646.88;4321642;32;20293;-59
2023/04/18 03:24:54;;;;;;;4.43;4.23;;;;;;;8.30;97.70;95639.28;4336825;32;20207;-59
2023/04/18 03:27:19;;;;;;;4.33;4.03;;;;;;;8.38;97.99;95637.94;4327907;32;20286;-59
2023/04/18 03:29:47;;;;;;;5.20;4.90;;;;;;;8.41;97.79;95638.19;4317032;32;20305;-59
2023/04/18 03:32:13;;;;;;;5.03;4.47;;;;;;;8.38;97.83;95637.94;4297446;32;20340;-59
2023/04/18 03:34:40;;;;;;;5.50;4.63;;;;;;;8.27;98.00;95637.97;4344179;32;20363;-59
2023/04/18 03:37:07;;;;;;;4.93;4.63;;;;;;;8.17;98.40;95637.19;4307756;32;20365;-59
2023/04/18 03:39:34;;;;;;;3.00;2.90;;;;;;;8.13;98.86;95631.66;4315301;32;20294;-59
2023/04/18 03:42:01;;;;;;;4.37;3.73;;;;;;;8.20;98.49;95631.38;4296658;32;20297;-59
2023/04/18 03:44:27;;;;;;;5.07;4.67;;;;;;;8.24;98.37;95637.72;4335531;32;20273;-59
2023/04/18 03:46:54;;;;;;;5.27;4.90;;;;;;;8.22;98.64;95627.41;4360819;32;20351;-59
2023/04/18 03:49:24;;;;;;;4.40;4.10;;;;;;;8.25;98.25;95632.16;4340017;32;20286;-59
2023/04/18 03:51:50;;;;;;;4.77;4.47;;;;;;;8.33;98.14;95630.81;4335885;32;20357;-60
2023/04/18 03:54:18;;;;;;;5.20;4.90;;;;;;;8.41;97.91;95626.81;4341100;32;20296;-59
2023/04/18 03:56:46;;;;;;;4.63;4.23;;;;;;;8.49;97.25;95634.19;4317267;32;20283;-59
2023/04/18 03:59:11;;;;;;;4.13;3.83;;;;;;;8.33;97.44;95632.66;4309140;32;20281;-59
2023/04/18 04:01:37;;;;;;;5.47;5.10;;;;;;;8.26;97.64;95638.22;4328678;32;20293;-58
2023/04/18 04:04:03;;;;;;;4.80;4.53;;;;;;;8.38;97.36;95638.72;4322483;32;20177;-59
2023/04/18 04:06:30;;;;;;;5.13;4.83;;;;;;;8.44;97.39;95639.50;4341538;32;20182;-59
2023/04/18 04:08:57;;;;;;;5.50;5.20;;;;;;;8.58;96.74;95643.94;4342334;32;20282;-59
2023/04/18 04:11:24;;;;;;;5.23;4.83;;;;;;;8.43;96.41;95640.56;4331901;32;20308;-60
2023/04/18 04:13:53;;;;;;;3.93;3.77;;;;;;;8.24;97.36;95633.22;4337524;32;20251;-60
2023/04/18 04:16:20;;;;;;;4.80;4.40;;;;;;;8.23;97.71;95639.56;4359785;32;20327;-59
2023/04/18 04:18:47;;;;;;;5.67;5.10;;;;;;;8.22;98.15;95637.97;4340087;32;20273;-59
2023/04/18 04:21:16;;;;;;;5.10;4.80;;;;;;;8.21;98.01;95639.03;4333966;32;20353;-59
2023/04/18 04:23:42;;;;;;;4.27;4.07;;;;;;;8.23;97.48;95639.56;4343020;32;20261;-59
2023/04/18 04:26:10;;;;;;;4.60;4.30;;;;;;;8.22;97.38;95640.63;4357052;32;20297;-58
2023/04/18 04:28:35;;;;;;;4.70;4.43;;;;;;;8.16;97.76;95643.53;4333016;32;20282;-59
2023/04/18 04:31:06;;;;;;;4.70;4.30;;;;;;;8.16;98.09;95641.69;4326491;32;20265;-59
2023/04/18 04:33:32;;;;;;;4.47;4.17;;;;;;;8.23;97.51;95644.06;4346415;32;20216;-59
2023/04/18 04:36:00;;;;;;;5.47;5.07;;;;;;;8.07;97.75;95645.97;4338678;32;20285;-59
2023/04/18 04:38:29;;;;;;;4.57;4.27;;;;;;;8.06;98.41;95647.03;4351437;32;20247;-59
2023/04/18 04:40:57;;;;;;;4.10;3.70;;;;;;;7.94;98.96;95643.88;4347039;32;20276;-59
2023/04/18 04:43:27;;;;;;;4.10;3.90;;;;;;;8.05;98.72;95648.09;4340383;32;20304;-58
2023/04/18 04:45:53;;;;;;;4.53;4.23;;;;;;;8.08;98.72;95644.91;4336006;32;20282;-58
2023/04/18 04:48:20;;;;;;;4.93;4.63;;;;;;;8.19;98.58;95648.28;4351105;32;20292;-59
2023/04/18 04:50:55;;;;;;;5.27;4.93;;;;;;;8.25;97.80;95641.94;4331865;33;20237;-59
2023/04/18 04:53:24;;;;;;;4.90;4.60;;;;;;;8.31;97.36;95648.78;4322498;33;20277;-59
2023/04/18 04:55:50;;;;;;;5.00;4.63;;;;;;;8.33;97.07;95651.16;4310124;33;20340;-59
2023/04/18 04:58:17;;;;;;;6.27;5.87;;;;;;;8.23;96.92;95647.50;4327000;32;20286;-59
2023/04/18 05:00:46;;;;;;;5.63;5.13;;;;;;;8.29;96.75;95645.62;4337154;32;20278;-59
2023/04/18 05:03:13;;;;;;;4.40;3.80;;;;;;;8.28;96.79;95650.13;4347896;32;20274;-61
2023/04/18 05:05:41;;;;;;;5.03;4.60;;;;;;;8.22;96.72;95648.53;4333110;32;20290;-59
2023/04/18 05:08:10;;;;;;;6.17;5.43;;;;;;;8.26;97.10;95652.25;4304880;32;20292;-59
2023/04/18 05:10:38;;;;;;;6.47;5.97;;;;;;;8.23;97.43;95657.28;4317757;32;20274;-60
2023/04/18 05:13:05;;;;;;;5.83;5.43;;;;;;;8.37;96.72;95646.94;4331325;32;20280;-59
2023/04/18 05:15:31;;;;;;;6.73;6.17;;;;;;;8.37;96.39;95647.72;4311394;32;20337;-59
2023/04/18 05:17:57;;;;;;;4.23;3.93;;;;;;;8.41;95.71;95651.41;4323849;32;20340;-59
2023/04/18 05:20:25;;;;;;;6.00;5.60;;;;;;;8.36;95.85;95650.63;4348055;32;20223;-59
2023/04/18 05:22:51;;;;;;;5.23;4.87;;;;;;;8.43;95.72;95651.94;4337290;32;20363;-59
2023/04/18 05:25:18;;;;;;;3.87;3.67;;;;;;;8.42;95.59;95660.94;4325432;32;20309;-60
2023/04/18 05:27:45;;;;;;;6.63;6.07;;;;;;;8.33;95.59;95656.44;4292210;33;20288;-60
2023/04/18 05:30:13;;;;;;;5.43;4.90;;;;;;;8.23;95.71;95668.62;4313728;33;20275;-60
2023/04/18 05:32:40;;;;;;;4.10;3.80;;;;;;;8.06;96.79;95662.88;4302885;32;20282;-60
2023/04/18 05:35:09;;;;;;;5.47;5.03;;;;;;;8.13;96.86;95666.00;4334778;32;20277;-60
2023/04/18 05:37:36;;;;;;;5.10;4.70;;;;;;;8.06;97.00;95662.88;4268499;32;20281;-60
2023/04/18 05:40:10;;;;;;;6.40;6.00;;;;;;;8.00;97.39;95657.88;4332582;32;20727;-60
2023/04/18 05:42:39;;;;;;;5.87;5.23;;;;;;;7.98;97.23;95663.41;4273317;32;20289;-60
2023/04/18 05:45:08;;;;;;;4.17;3.87;;;;;;;8.09;97.03;95662.34;4332739;32;20335;-60
2023/04/18 05:47:35;;;;;;;4.57;4.27;;;;;;;7.99;97.55;95661.56;4352844;32;20293;-60
2023/04/18 05:50:01;;;;;;;5.57;5.17;;;;;;;7.87;97.70;95667.16;4360069;32;20269;-60
2023/04/18 05:52:27;;;;;;;3.80;3.60;;;;;;;7.97;97.87;95664.47;4328165;32;20388;-60
2023/04/18 05:54:53;;;;;;;4.77;4.50;;;;;;;8.02;97.67;95674.25;4343782;32;20172;-60
2023/04/18 05:57:18;;;;;;;4.80;4.50;;;;;;;7.96;97.47;95673.44;4365388;32;20331;-61
2023/04/18 05:59:46;;;;;;;4.40;4.20;;;;;;;8.12;97.46;95676.84;4340099;32;20189;-61
2023/04/18 06:02:16;;;;;;;3.87;3.67;;;;;;;8.22;97.02;95669.69;4296790;32;20339;-60
2023/04/18 06:04:42;;;;;;;5.33;4.93;;;;;;;8.22;96.55;95677.63;4336086;32;20300;-59
2023/04/18 06:07:14;;;;;;;6.63;6.03;;;;;;;8.33;96.66;95678.38;4334868;32;20321;-59
2023/04/18 06:09:41;;;;;;;5.13;4.60;;;;;;;8.39;96.22;95679.16;4354440;32;20287;-59
2023/04/18 06:12:08;;;;;;;5.53;5.13;;;;;;;8.35;96.20;95683.41;4359035;32;20281;-58
2023/04/18 06:14:35;;;;;;;5.23;4.93;;;;;;;8.46;95.88;95677.03;4331084;32;20305;-58
2023/04/18 06:17:02;;;;;;;6.27;5.80;;;;;;;8.59;95.15;95692.31;4328500;32;20184;-60
2023/04/18 06:19:34;;;;;;;4.47;4.27;;;;;;;8.53;95.15;95683.59;4340513;32;20285;-59
2023/04/18 06:22:01;;;;;;;4.90;4.40;;;;;;;8.60;95.12;95688.59;4331018;32;20321;-59
2023/04/18 06:24:27;;;;;;;5.43;5.03;;;;;;;8.75;94.37;95691.16;4332067;32;20282;-59
2023/04/18 06:26:54;;;;;;;4.67;4.27;;;;;;;8.59;94.90;95692.31;4341564;32;20388;-59
2023/04/18 06:29:22;;;;;;;4.30;4.00;;;;;;;8.71;94.83;95689.38;4334767;32;20241;-60
2023/04/18 06:31:49;;;;;;;5.30;5.00;;;;;;;8.74;94.87;95696.72;4339288;32;20290;-59
2023/04/18 06:34:15;;;;;;;4.90;4.40;;;;;;;8.79;94.54;95702.78;4307961;33;20317;-57
2023/04/18 06:36:41;;;;;;;5.43;5.03;;;;;;;8.76;94.44;95705.19;4305381;32;20322;-58
2023/04/18 06:39:08;;;;;;;6.47;5.87;;;;;;;8.93;96.34;95703.81;4329711;32;20196;-57
2023/04/18 06:41:37;;;;;;;5.60;5.13;;;;;;;8.90;94.67;95709.63;4317692;32;20204;-56
2023/04/18 06:44:03;;;;;;;11.97;4.27;;;;;;;9.06;97.17;95710.34;4315419;32;20259;-57
2023/04/18 06:46:32;;;;;;;18.97;4.40;;;;;;;9.79;99.80;95712.19;4312903;32;20316;-57
2023/04/18 06:48:59;;;;;;;5.13;4.63;;;;;;;10.76;97.76;95701.41;4344427;32;20197;-57
2023/04/18 06:51:26;;;;;;;5.23;4.93;;;;;;;11.20;89.75;95706.41;4331271;32;20198;-57
2023/04/18 06:53:55;;;;;;;3.60;3.30;;;;;;;11.65;87.27;95707.56;4325126;32;20193;-57
2023/04/18 06:56:24;;;;;;;4.63;4.40;;;;;;;12.15;86.82;95711.28;4308974;32;20290;-57
2023/04/18 06:58:54;;;;;;;3.70;3.50;;;;;;;12.59;84.82;95708.06;4334900;32;20235;-57
2023/04/18 07:01:19;;;;;;;3.63;3.30;;;;;;;12.94;82.24;95711.88;4330698;32;20216;-56
2023/04/18 07:03:45;;;;;;;5.17;4.80;;;;;;;13.06;79.69;95709.50;4307334;32;20215;-57
2023/04/18 07:06:12;;;;;;;6.70;4.70;;;;;;;13.12;78.17;95707.50;4333572;32;20181;-57
2023/04/18 07:08:39;;;;;;;4.80;4.53;;;;;;;13.30;77.51;95705.84;4334074;32;20259;-57
2023/04/18 07:11:11;;;;;;;4.33;4.03;;;;;;;13.14;76.59;95704.53;4336668;32;20186;-57
2023/04/18 07:13:39;;;;;;;4.27;3.97;;;;;;;13.26;76.08;95713.62;4332120;32;20284;-57
2023/04/18 07:16:05;;;;;;;4.73;4.43;;;;;;;13.22;76.48;95707.31;4321769;32;20193;-57
2023/04/18 07:18:33;;;;;;;4.57;4.17;;;;;;;13.41;77.26;95704.50;4297588;33;20265;-58
2023/04/18 07:21:01;;;;;;;3.17;2.97;;;;;;;13.57;78.84;95703.06;4286443;32;20186;-59
2023/04/18 07:23:27;;;;;;;3.63;3.37;;;;;;;13.59;76.94;95710.75;4297722;33;20197;-60
2023/04/18 07:25:54;;;;;;;4.63;4.23;;;;;;;12.91;80.89;95704.47;4319072;32;20247;-59
2023/04/18 07:28:20;;;;;;;3.23;3.03;;;;;;;11.36;80.65;95710.41;4327232;32;20200;-60
2023/04/18 07:30:47;;;;;;;4.87;4.47;;;;;;;11.19;81.48;95707.47;4346989;32;20207;-59
2023/04/18 07:33:17;;;;;;;4.47;4.17;;;;;;;11.35;80.96;95706.16;4323819;32;20299;-58
2023/04/18 07:35:48;;;;;;;3.60;3.40;;;;;;;10.94;82.30;95714.69;4318380;32;20180;-58
2023/04/18 07:38:16;;;;;;;3.57;3.37;;;;;;;10.69;81.71;95712.34;4330945;32;20189;-58
2023/04/18 07:40:45;;;;;;;3.43;3.23;;;;;;;10.41;83.67;95711.34;4341666;32;20251;-59
2023/04/18 07:43:12;;;;;;;3.07;2.97;;;;;;;10.18;84.54;95712.91;4339550;32;20204;-61
2023/04/18 07:45:42;;;;;;;4.03;3.60;;;;;;;9.90;85.95;95716.34;4353206;32;20231;-62
2023/04/18 07:48:07;;;;;;;3.90;3.70;;;;;;;9.99;85.60;95704.06;4353674;32;20189;-63
2023/04/18 07:50:33;;;;;;;4.33;4.03;;;;;;;9.99;86.11;95712.00;4314839;32;20265;-62
2023/04/18 07:53:02;;;;;;;5.50;4.07;;;;;;;10.11;84.86;95712.44;4307386;32;20248;-63
2023/04/18 07:55:29;;;;;;;3.90;3.70;;;;;;;10.10;85.51;95710.06;4301234;33;20196;-62
2023/04/18 07:57:58;;;;;;;3.53;3.37;;;;;;;10.29;85.14;95714.41;4333979;32;20245;-63
2023/04/18 08:00:23;;;;;;;3.47;3.27;;;;;;;10.38;84.34;95716.44;4333997;32;20256;-62
2023/04/18 08:02:49;;;;;;;3.37;3.17;;;;;;;10.31;84.91;95719.41;4333840;32;20184;-62
2023/04/18 08:05:18;;;;;;;3.77;3.47;;;;;;;10.46;84.02;95723.75;4356258;32;20207;-60
2023/04/18 08:07:44;;;;;;;3.33;3.23;;;;;;;10.45;83.39;95722.19;4300657;32;20208;-59
2023/04/18 08:10:11;;;;;;;3.93;3.67;;;;;;;10.47;83.70;95725.34;4330342;32;20280;-58
2023/04/18 08:12:37;;;;;;;3.60;3.37;;;;;;;10.46;84.10;95723.75;4328034;32;20186;-61
2023/04/18 08:15:07;;;;;;;4.40;3.20;;;;;;;10.46;84.44;95724.56;4334601;32;20244;-62
2023/04/18 08:17:32;;;;;;;3.63;3.43;;;;;;;10.52;84.73;95727.94;4328124;32;20189;-62
2023/04/18 08:20:03;;;;;;;4.20;3.90;;;;;;;10.41;84.71;95737.06;4359254;32;20214;-62
2023/04/18 08:22:31;;;;;;;3.13;3.00;;;;;;;10.42;84.53;95733.34;4320979;32;20235;-60
2023/04/18 08:25:01;;;;;;;3.57;3.37;;;;;;;10.37;84.30;95738.72;4356322;32;20184;-60
2023/04/18 08:27:28;;;;;;;3.00;2.80;;;;;;;10.24;84.84;95738.31;4334364;32;20223;-61
2023/04/18 08:29:54;;;;;;;3.77;3.27;;;;;;;10.21;85.40;95733.56;4338242;32;20272;-61
2023/04/18 08:32:22;;;;;;;3.70;3.47;;;;;;;10.04;85.80;95743.78;4314000;32;20215;-59
2023/04/18 08:34:51;;;;;;;4.63;4.03;;;;;;;10.02;86.04;95748.56;4310493;32;20239;-61
2023/04/18 08:37:19;;;;;;;4.47;4.20;;;;;;;9.97;86.09;95743.31;4345222;32;20181;-60
2023/04/18 08:39:46;;;;;;;3.47;3.27;;;;;;;9.88;86.16;95745.78;4349246;32;20227;-61
2023/04/18 08:42:18;;;;;;;2.97;2.83;;;;;;;9.96;86.74;95741.75;4357617;32;20232;-62
2023/04/18 08:44:46;;;;;;;3.37;2.67;;;;;;;11.47;89.60;95738.38;4321074;32;20256;-61
2023/04/18 08:47:12;;;;;;;4.60;4.30;;;;;;;11.20;84.81;95744.38;4344323;32;20251;-62
2023/04/18 08:49:41;;;;;;;3.90;3.70;;;;;;;11.02;82.59;95748.56;4316672;33;20256;-59
2023/04/18 08:52:12;;;;;;;3.70;3.47;;;;;;;11.08;83.16;95751.94;4335204;32;20189;-60
2023/04/18 08:54:41;;;;;;;3.50;3.27;;;;;;;11.05;82.47;95749.06;4276770;33;20194;-59
2023/04/18 08:57:11;;;;;;;5.37;4.63;;;;;;;10.99;82.91;95751.03;4284691;33;24034;-60
2023/04/18 08:59:40;;;;;;;3.43;3.20;;;;;;;10.67;83.69;95768.34;4323500;32;20190;-60
2023/04/18 09:02:09;;;;;;;4.73;4.17;;;;;;;10.73;83.64;95761.13;4307875;33;20200;-59
2023/04/18 09:04:47;;;;;;;3.27;3.17;;;;;;;10.60;84.49;95767.09;4303799;32;20219;-58
2023/04/18 09:07:27;;;;;;;3.30;3.10;;;;;;;10.45;84.79;95769.94;4333477;32;20256;-57
2023/04/18 09:09:56;;;;;;;4.33;4.13;;;;;;;10.13;86.06;95771.28;4322372;32;20177;-58
2023/04/18 09:12:26;;;;;;;3.30;3.10;;;;;;;10.24;86.30;95764.81;4297307;32;20200;-58
2023/04/18 09:14:56;;;;;;;3.00;2.90;;;;;;;10.21;86.06;95769.88;4320771;33;20302;-59
2023/04/18 09:17:44;;;;;;;4.50;4.10;;;;;;;10.38;85.52;95774.78;4338076;32;20195;-58
2023/04/18 09:20:41;;;;;;;3.30;3.10;;;;;;;10.45;84.85;95768.06;4310052;32;20235;-59
2023/04/18 09:23:16;;;;;;;3.63;3.33;;;;;;;10.32;85.49;95777.47;4304057;33;20186;-59
2023/04/18 09:25:51;;;;;;;3.10;2.90;;;;;;;10.39;84.94;95760.47;4304852;33;20248;-59
2023/04/18 09:28:32;;;;;;;3.97;3.67;;;;;;;10.49;84.70;95770.94;4331986;32;20249;-59
2023/04/18 09:31:15;;;;;;;3.80;3.50;;;;;;;10.42;84.22;95770.47;4324955;32;20272;-58
2023/04/18 09:33:56;;;;;;;2.83;2.73;;;;;;;10.12;85.47;95771.53;4331930;32;20187;-58
2023/04/18 09:36:43;;;;;;;2.90;2.70;;;;;;;10.27;85.30;95764.25;4352507;32;20176;-59
2023/04/18 09:39:27;;;;;;;2.90;2.70;;;;;;;10.47;85.00;95770.44;4346732;32;20243;-60
2023/04/18 09:42:14;;;;;;;3.30;3.10;;;;;;;10.43;84.41;95766.75;4338460;32;20181;-56
2023/04/18 09:45:08;;;;;;;3.83;3.57;;;;;;;10.59;83.87;95762.91;4317442;32;20295;-58
2023/04/18 09:47:37;;;;;;;2.57;2.47;;;;;;;10.69;83.84;95770.72;4346298;32;20224;-58
2023/04/18 09:50:07;;;;;;;3.57;3.27;;;;;;;10.46;84.22;95761.69;4341498;32;20253;-55
2023/04/18 09:52:35;;;;;;;2.77;2.57;;;;;;;10.50;84.36;95767.22;4343363;32;20253;-57
2023/04/18 09:55:10;;;;;;;3.37;3.17;;;;;;;10.48;84.15;95764.06;4289484;33;20190;-57
2023/04/18 09:57:41;;;;;;;4.03;3.83;;;;;;;10.58;84.29;95771.94;4322468;32;20193;-58
2023/04/18 10:00:19;;;;;;;2.83;2.63;;;;;;;10.62;84.43;95770.28;4311035;32;20178;-58
2023/04/18 10:03:12;;;;;;;3.83;3.63;;;;;;;10.70;84.02;95767.00;4309546;32;20274;-59
2023/04/18 10:05:44;;;;;;;2.33;2.23;;;;;;;10.69;84.10;95765.44;4353171;32;20276;-59
2023/04/18 10:08:25;;;;;;;3.30;3.20;;;;;;;10.75;83.70;95758.22;4340454;32;20418;-57
2023/04/18 10:10:50;;;;;;;3.53;3.33;;;;;;;10.78;83.83;95763.75;4296830;32;20309;-58
2023/04/18 10:13:17;;;;;;;2.93;2.73;;;;;;;10.87;82.57;95758.59;4354925;32;20189;-59
2023/04/18 10:15:43;;;;;;;2.97;2.67;;;;;;;10.86;82.81;95763.09;4311548;32;20316;-56
2023/04/18 10:18:14;;;;;;;3.83;3.63;;;;;;;10.94;83.05;95767.78;4338364;32;20252;-57
2023/04/18 10:21:02;;;;;;;3.53;3.33;;;;;;;10.94;82.25;95754.50;4352578;32;20185;-61
2023/04/18 10:23:40;;;;;;;3.53;3.33;;;;;;;11.10;81.95;95756.97;4350634;32;20200;-58
2023/04/18 10:26:07;;;;;;;2.60;2.50;;;;;;;11.22;81.68;95773.28;4331574;32;20193;-58
2023/04/18 10:28:59;;;;;;;2.60;2.50;;;;;;;10.97;82.69;95750.50;4316188;32;20284;-57
2023/04/18 10:31:38;;;;;;;3.00;2.80;;;;;;;11.03;82.77;95760.75;4360428;32;20201;-57
2023/04/18 10:34:05;;;;;;;3.33;3.13;;;;;;;10.98;83.57;95770.66;4336072;32;20216;-57
2023/04/18 10:36:32;;;;;;;2.90;2.70;;;;;;;10.90;83.64;95756.16;4341205;32;20241;-57
2023/04/18 10:39:23;;;;;;;2.63;2.53;;;;;;;10.83;84.12;95755.69;4298121;33;20216;-57
2023/04/18 10:41:53;;;;;;;3.63;3.33;;;;;;;10.95;83.69;95766.72;4313842;32;20190;-55
2023/04/18 10:44:21;;;;;;;2.80;2.70;;;;;;;10.85;83.36;95753.56;4341604;32;20215;-57
2023/04/18 10:47:18;;;;;;;4.30;3.40;;;;;;;10.86;83.14;95757.78;4340504;32;20182;-58
2023/04/18 10:49:55;;;;;;;3.00;2.80;;;;;;;11.05;83.09;95754.38;4335945;32;20196;-58
2023/04/18 10:52:23;;;;;;;2.57;2.47;;;;;;;11.07;82.62;95757.53;4334356;32;20225;-58
2023/04/18 10:55:25;;;;;;;3.00;2.80;;;;;;;11.09;82.47;95752.75;4336706;32;20173;-59
2023/04/18 10:57:52;;;;;;;3.50;3.30;;;;;;;11.53;87.14;95753.19;4335541;32;20184;-59
2023/04/18 11:00:22;;;;;;;2.63;2.43;;;;;;;12.47;81.53;95738.94;4303905;32;20200;-59
2023/04/18 11:02:56;;;;;;;4.90;3.33;;;;;;;12.03;78.70;95750.84;4311709;32;20197;-59
2023/04/18 11:05:28;;;;;;;3.60;3.40;;;;;;;13.28;80.21;95738.13;4320401;32;20189;-59
2023/04/18 11:07:55;;;;;;;3.23;3.03;;;;;;;12.51;78.05;95742.56;4339608;32;20271;-58
2023/04/18 11:10:25;;;;;;;4.10;3.80;;;;;;;11.29;81.37;95739.19;4309850;32;20190;-58
2023/04/18 11:12:54;;;;;;;14.40;3.13;;;;;;;11.67;80.42;95738.09;4313136;32;20197;-59
2023/04/18 11:15:22;;;;;;;2.43;2.33;;;;;;;12.07;82.40;95737.75;4360718;32;20227;-59
2023/04/18 11:18:03;;;;;;;4.67;4.27;;;;;;;11.98;78.98;95746.41;4320990;32;20201;-59
2023/04/18 11:20:37;;;;;;;3.83;3.53;;;;;;;11.35;81.52;95746.81;4319816;32;20185;-59
2023/04/18 11:23:19;;;;;;;3.33;3.10;;;;;;;11.30;81.50;95738.13;4319268;32;20238;-59
2023/04/18 11:25:55;;;;;;;3.07;2.87;;;;;;;12.64;76.70;95744.44;4312063;33;20186;-60
2023/04/18 11:28:23;;;;;;;2.47;2.37;;;;;;;12.00;78.15;95743.47;4317812;32;20071;-60
2023/04/18 11:30:50;;;;;;;3.07;2.83;;;;;;;11.69;79.95;95735.94;4298826;33;20186;-59
2023/04/18 11:33:20;;;;;;;3.43;3.23;;;;;;;11.38;80.49;95737.47;4336833;32;20255;-60
2023/04/18 11:35:47;;;;;;;4.37;2.67;;;;;;;11.25;81.00;95730.22;4337918;32;20173;-61
2023/04/18 11:38:15;;;;;;;3.00;2.90;;;;;;;11.38;80.98;95740.13;4344460;32;20192;-61
2023/04/18 11:40:51;;;;;;;2.97;2.63;;;;;;;11.38;80.88;95736.69;4332602;32;20302;-61
2023/04/18 11:43:24;;;;;;;3.20;3.03;;;;;;;11.29;80.56;95736.53;4323994;32;20173;-60
2023/04/18 11:45:59;;;;;;;4.87;3.13;;;;;;;11.38;80.67;95740.13;4313252;32;20197;-61
2023/04/18 11:48:54;;;;;;;3.03;2.83;;;;;;;11.57;79.63;95742.78;4343741;32;20181;-60